Time;durP1;ratioP1;P1;durP2;ratioP2;P2;SDS_P1;SDS_P2;PMS_P1;PMS_P2;Temp;Humidity;BMP_temperature;BMP_pressure;BME280_temperature;BME280_humidity;BME280_pressure;Samples;Min_cycle;Max_cycle;Signal;HPM_P1;HPM_P2
2022/07/21 00:01:08;;;;;;;16.98;5.95;;;;;;;;;;4912461;29;20114;-88
2022/07/21 00:03:34;;;;;;;12.38;5.10;;;;;;;;;;4908861;29;20138;-88
2022/07/21 00:06:00;;;;;;;16.60;5.70;;;;;;;;;;4930790;29;20046;-88
2022/07/21 00:08:26;;;;;;;12.88;5.22;;;;;;;;;;4942899;28;20024;-89
2022/07/21 00:10:52;;;;;;;14.43;5.07;;;;;;;;;;4928745;29;20214;-88
2022/07/21 00:13:18;;;;;;;12.55;5.20;;;;;;;;;;4930021;29;20398;-88
2022/07/21 00:15:45;;;;;;;16.58;5.35;;;;;;;;;;4941457;28;20038;-89
2022/07/21 00:18:11;;;;;;;16.08;5.32;;;;;;;;;;4924634;29;20130;-88
2022/07/21 00:20:37;;;;;;;10.05;4.97;;;;;;;;;;4930450;29;20395;-89
2022/07/21 00:23:03;;;;;;;16.08;4.85;;;;;;;;;;4928053;29;20047;-89
2022/07/21 00:25:29;;;;;;;12.77;4.60;;;;;;;;;;4940499;28;20102;-89
2022/07/21 00:27:55;;;;;;;13.00;5.15;;;;;;;;;;4928809;29;20147;-89
2022/07/21 00:30:22;;;;;;;22.10;5.22;;;;;;;;;;4929922;29;20550;-89
2022/07/21 00:32:48;;;;;;;12.52;5.63;;;;;;;;;;4942436;28;20032;-90
2022/07/21 00:35:14;;;;;;;13.57;5.47;;;;;;;;;;4943077;28;20632;-89
2022/07/21 00:37:47;;;;;;;18.52;6.85;;;;;;;;;;4939350;28;20468;-88
2022/07/21 00:40:13;;;;;;;17.02;6.38;;;;;;;;;;4926532;29;20042;-89
2022/07/21 00:42:40;;;;;;;23.90;5.80;;;;;;;;;;4916328;29;20480;-89
2022/07/21 00:45:07;;;;;;;12.40;6.03;;;;;;;;;;4946881;28;20094;-89
2022/07/21 00:47:33;;;;;;;16.67;6.63;;;;;;;;;;4930208;29;20043;-89
2022/07/21 00:50:00;;;;;;;10.40;5.80;;;;;;;;;;4933000;29;20170;-88
2022/07/21 00:52:27;;;;;;;12.40;5.85;;;;;;;;;;4915639;29;20028;-89
2022/07/21 00:54:53;;;;;;;13.02;6.45;;;;;;;;;;4940304;28;20384;-88
2022/07/21 00:57:19;;;;;;;19.30;7.40;;;;;;;;;;4944219;28;20381;-88
2022/07/21 00:59:45;;;;;;;25.55;7.95;;;;;;;;;;4943347;28;20028;-87
2022/07/21 01:02:17;;;;;;;17.38;7.82;;;;;;;;;;4926506;29;20028;-88
2022/07/21 01:04:44;;;;;;;23.35;8.93;;;;;;;;;;4941245;28;20044;-89
2022/07/21 01:07:10;;;;;;;37.65;11.98;;;;;;;;;;4915383;29;20043;-90
2022/07/21 01:09:36;;;;;;;26.45;10.80;;;;;;;;;;4946277;28;20027;-89
2022/07/21 01:12:03;;;;;;;27.17;11.32;;;;;;;;;;4950698;28;20030;-89
2022/07/21 01:14:29;;;;;;;24.50;10.10;;;;;;;;;;4934102;29;20599;-89
2022/07/21 01:16:55;;;;;;;32.13;11.13;;;;;;;;;;4915656;29;20618;-89
2022/07/21 01:19:21;;;;;;;24.55;10.38;;;;;;;;;;4909866;29;20051;-89
2022/07/21 01:21:48;;;;;;;27.65;11.07;;;;;;;;;;4916451;29;20039;-90
2022/07/21 01:24:14;;;;;;;28.63;11.38;;;;;;;;;;4947314;28;20130;-90
2022/07/21 01:26:44;;;;;;;29.55;12.18;;;;;;;;;;4917111;29;20158;-90
2022/07/21 01:29:11;;;;;;;26.13;11.80;;;;;;;;;;4913565;29;20036;-90
2022/07/21 01:31:37;;;;;;;29.85;12.45;;;;;;;;;;4912931;29;20027;-91
2022/07/21 01:34:03;;;;;;;31.20;12.27;;;;;;;;;;4930286;29;20035;-91
2022/07/21 01:36:30;;;;;;;29.00;13.52;;;;;;;;;;4945499;28;20583;-91
2022/07/21 01:41:40;;;;;;;26.90;12.38;;;;;;;;;;4931453;29;20046;-90
2022/07/21 01:44:07;;;;;;;31.55;14.35;;;;;;;;;;4949758;28;20039;-90
2022/07/21 01:46:38;;;;;;;34.10;14.85;;;;;;;;;;4945219;28;20115;-91
2022/07/21 01:49:04;;;;;;;34.97;13.80;;;;;;;;;;4950019;28;20066;-92
2022/07/21 01:51:30;;;;;;;29.70;12.88;;;;;;;;;;4934925;29;20675;-91
2022/07/21 01:53:57;;;;;;;37.30;13.63;;;;;;;;;;4947457;28;20031;-91
2022/07/21 01:56:24;;;;;;;38.10;13.48;;;;;;;;;;4950632;28;20040;-93
2022/07/21 01:58:51;;;;;;;40.45;12.80;;;;;;;;;;4954612;28;20526;-92
2022/07/21 02:01:18;;;;;;;26.52;13.07;;;;;;;;;;4932898;29;20122;-91
2022/07/21 02:03:45;;;;;;;31.77;14.25;;;;;;;;;;4923232;29;20440;-93
2022/07/21 02:06:11;;;;;;;34.80;15.32;;;;;;;;;;4931513;29;20099;-92
2022/07/21 02:08:37;;;;;;;40.50;16.73;;;;;;;;;;4948260;28;20604;-91
2022/07/21 02:11:04;;;;;;;38.45;16.40;;;;;;;;;;4934826;29;20035;-91
2022/07/21 02:13:30;;;;;;;41.17;17.08;;;;;;;;;;4950052;28;20024;-92
2022/07/21 02:15:56;;;;;;;39.55;16.80;;;;;;;;;;4944642;28;20077;-92
2022/07/21 02:18:22;;;;;;;33.03;15.30;;;;;;;;;;4933600;29;20036;-92
2022/07/21 02:20:50;;;;;;;37.15;13.82;;;;;;;;;;4919443;29;20027;-91
2022/07/21 02:23:16;;;;;;;49.70;14.95;;;;;;;;;;4945532;28;20034;-90
2022/07/21 02:25:42;;;;;;;50.85;15.65;;;;;;;;;;4942250;28;20039;-91
2022/07/21 02:28:08;;;;;;;38.70;13.50;;;;;;;;;;4933962;29;20027;-90
2022/07/21 02:30:34;;;;;;;44.85;15.77;;;;;;;;;;4944713;28;20027;-90
2022/07/21 02:33:00;;;;;;;34.38;14.88;;;;;;;;;;4920394;29;20028;-90
2022/07/21 02:35:26;;;;;;;39.80;15.07;;;;;;;;;;4949788;28;20079;-91
2022/07/21 02:37:53;;;;;;;41.00;15.27;;;;;;;;;;4948499;28;20079;-90
2022/07/21 02:40:19;;;;;;;32.67;15.20;;;;;;;;;;4927859;29;20039;-89
2022/07/21 02:42:45;;;;;;;45.65;16.30;;;;;;;;;;4950023;28;20040;-90
2022/07/21 02:45:11;;;;;;;43.88;16.70;;;;;;;;;;4946488;28;20050;-90
2022/07/21 02:47:56;;;;;;;41.33;15.95;;;;;;;;;;4949328;28;20380;-89
2022/07/21 02:50:23;;;;;;;35.78;15.63;;;;;;;;;;4945435;28;20020;-89
2022/07/21 02:52:49;;;;;;;37.67;14.73;;;;;;;;;;4919680;29;20031;-90
2022/07/21 02:55:19;;;;;;;35.65;14.90;;;;;;;;;;4944817;28;20032;-90
2022/07/21 02:57:45;;;;;;;31.98;15.30;;;;;;;;;;4917711;29;20720;-90
2022/07/21 03:00:12;;;;;;;32.03;14.60;;;;;;;;;;4948386;28;20115;-90
2022/07/21 03:02:38;;;;;;;35.58;16.73;;;;;;;;;;4919161;29;20027;-90
2022/07/21 03:05:04;;;;;;;33.72;15.25;;;;;;;;;;4943266;28;20579;-90
2022/07/21 03:07:30;;;;;;;30.33;16.67;;;;;;;;;;4913748;29;20031;-91
2022/07/21 03:09:56;;;;;;;42.40;18.17;;;;;;;;;;4934648;29;20510;-92
2022/07/21 03:12:25;;;;;;;35.85;16.70;;;;;;;;;;4948541;28;20039;-92
2022/07/21 03:14:52;;;;;;;41.67;17.10;;;;;;;;;;4948401;28;20036;-93
2022/07/21 03:17:18;;;;;;;31.08;16.48;;;;;;;;;;4947562;28;20032;-92
2022/07/21 03:19:44;;;;;;;40.28;17.17;;;;;;;;;;4946468;28;20059;-92
2022/07/21 03:22:10;;;;;;;46.80;17.92;;;;;;;;;;4930315;29;20027;-91
2022/07/21 03:24:36;;;;;;;39.78;17.02;;;;;;;;;;4915563;29;20384;-92
2022/07/21 03:27:02;;;;;;;39.13;18.67;;;;;;;;;;4916696;29;20105;-91
2022/07/21 03:29:28;;;;;;;41.17;19.08;;;;;;;;;;4943441;28;20032;-91
2022/07/21 03:31:54;;;;;;;52.00;20.83;;;;;;;;;;4944285;28;20031;-92
2022/07/21 03:34:20;;;;;;;48.17;21.15;;;;;;;;;;4942570;28;20028;-91
2022/07/21 03:36:46;;;;;;;59.13;22.45;;;;;;;;;;4947237;28;20028;-91
2022/07/21 03:39:12;;;;;;;45.53;22.02;;;;;;;;;;4943501;28;20448;-92
2022/07/21 03:41:38;;;;;;;42.95;20.00;;;;;;;;;;4915294;29;20031;-94
2022/07/21 03:44:04;;;;;;;59.83;24.58;;;;;;;;;;4946690;28;20027;-94
2022/07/21 03:46:30;;;;;;;56.88;21.67;;;;;;;;;;4915438;29;20039;-95
2022/07/21 03:48:56;;;;;;;53.30;22.17;;;;;;;;;;4915553;29;20383;-95
2022/07/21 03:51:23;;;;;;;48.17;21.65;;;;;;;;;;4948120;28;20051;-93
2022/07/21 03:53:49;;;;;;;52.33;21.73;;;;;;;;;;4931525;29;20065;-94
2022/07/21 03:56:15;;;;;;;52.03;22.65;;;;;;;;;;4916335;29;20115;-92
2022/07/21 03:58:41;;;;;;;51.58;21.05;;;;;;;;;;4946313;28;20032;-92
2022/07/21 04:01:07;;;;;;;49.67;20.95;;;;;;;;;;4929737;29;20506;-93
2022/07/21 04:03:35;;;;;;;47.38;22.15;;;;;;;;;;4944490;28;20036;-92
2022/07/21 04:06:01;;;;;;;50.63;20.40;;;;;;;;;;4914891;29;20044;-94
2022/07/21 04:08:28;;;;;;;48.83;21.63;;;;;;;;;;4915698;29;20031;-93
2022/07/21 04:10:54;;;;;;;49.72;20.58;;;;;;;;;;4936260;29;20015;-93
2022/07/21 04:13:20;;;;;;;47.22;20.75;;;;;;;;;;4946220;28;20055;-93
2022/07/21 04:15:46;;;;;;;48.20;21.58;;;;;;;;;;4932696;29;20083;-94
2022/07/21 04:18:12;;;;;;;50.40;21.38;;;;;;;;;;4935265;29;20044;-93
2022/07/21 04:20:38;;;;;;;51.70;23.08;;;;;;;;;;4936741;29;20031;-94
2022/07/21 04:23:04;;;;;;;47.45;22.20;;;;;;;;;;4920634;29;20035;-94
2022/07/21 04:25:30;;;;;;;60.63;22.17;;;;;;;;;;4950622;28;20032;-92
2022/07/21 04:28:04;;;;;;;53.10;23.40;;;;;;;;;;4948972;28;20054;-94
2022/07/21 04:30:30;;;;;;;49.75;22.08;;;;;;;;;;4947923;28;20035;-95
2022/07/21 04:32:57;;;;;;;45.22;20.27;;;;;;;;;;4950102;28;20036;-93
2022/07/21 04:35:23;;;;;;;56.22;23.10;;;;;;;;;;4948336;28;20043;-94
2022/07/21 04:37:50;;;;;;;59.55;23.55;;;;;;;;;;4937683;29;20039;-94
2022/07/21 04:40:16;;;;;;;59.97;23.70;;;;;;;;;;4946921;28;20039;-92
2022/07/21 04:42:45;;;;;;;59.10;22.95;;;;;;;;;;4932851;29;20035;-92
2022/07/21 04:45:12;;;;;;;47.80;22.88;;;;;;;;;;4950789;28;20032;-92
2022/07/21 04:47:49;;;;;;;42.30;18.25;;;;;;;;;;4922597;29;20512;-91
2022/07/21 04:50:16;;;;;;;59.97;23.33;;;;;;;;;;4951361;28;20027;-93
2022/07/21 04:52:42;;;;;;;45.92;20.13;;;;;;;;;;4925245;29;20125;-92
2022/07/21 04:55:08;;;;;;;44.70;21.40;;;;;;;;;;4932586;29;20031;-92
2022/07/21 04:57:38;;;;;;;49.35;20.50;;;;;;;;;;4950569;28;20048;-93
2022/07/21 05:00:05;;;;;;;48.53;22.95;;;;;;;;;;4936109;29;20026;-91
2022/07/21 05:02:31;;;;;;;53.30;23.73;;;;;;;;;;4937443;29;20543;-94
2022/07/21 05:04:57;;;;;;;47.80;23.35;;;;;;;;;;4947842;28;20043;-92
2022/07/21 05:07:23;;;;;;;51.22;23.73;;;;;;;;;;4943084;29;20051;-92
2022/07/21 05:09:49;;;;;;;47.95;22.92;;;;;;;;;;4952557;28;20067;-93
2022/07/21 05:12:15;;;;;;;49.72;24.48;;;;;;;;;;4957378;28;20046;-92
2022/07/21 05:14:41;;;;;;;52.45;26.10;;;;;;;;;;4936255;29;20032;-92
2022/07/21 05:17:07;;;;;;;39.35;16.77;;;;;;;;;;4925026;29;20032;-92
2022/07/21 05:19:33;;;;;;;44.55;23.42;;;;;;;;;;4946885;28;20043;-94
2022/07/21 05:22:02;;;;;;;61.40;25.55;;;;;;;;;;4922847;29;20036;-94
2022/07/21 05:24:28;;;;;;;43.55;23.30;;;;;;;;;;4949919;28;20024;-92
2022/07/21 05:26:54;;;;;;;48.85;24.48;;;;;;;;;;4933391;29;20092;-93
2022/07/21 05:29:21;;;;;;;43.25;23.02;;;;;;;;;;4934812;29;20079;-94
2022/07/21 05:31:47;;;;;;;42.63;23.58;;;;;;;;;;4920248;29;20035;-93
2022/07/21 05:34:13;;;;;;;41.22;22.92;;;;;;;;;;4951146;28;20028;-93
2022/07/21 05:36:39;;;;;;;39.53;22.95;;;;;;;;;;4917433;29;20472;-93
2022/07/21 05:39:05;;;;;;;45.42;21.13;;;;;;;;;;4930929;29;20817;-92
2022/07/21 05:41:31;;;;;;;31.42;17.65;;;;;;;;;;4942825;28;20043;-92
2022/07/21 05:43:57;;;;;;;42.08;20.98;;;;;;;;;;4921780;29;20027;-93
2022/07/21 05:46:23;;;;;;;33.80;20.55;;;;;;;;;;4917279;29;20390;-91
2022/07/21 05:48:54;;;;;;;39.55;21.15;;;;;;;;;;4949665;28;20151;-91
2022/07/21 05:51:20;;;;;;;36.28;20.02;;;;;;;;;;4912697;29;20032;-93
2022/07/21 05:53:46;;;;;;;42.45;22.23;;;;;;;;;;4952875;28;20472;-92
2022/07/21 05:56:12;;;;;;;43.33;22.20;;;;;;;;;;4922012;29;20043;-93
2022/07/21 05:58:38;;;;;;;45.22;22.40;;;;;;;;;;4950031;28;20024;-92
2022/07/21 06:01:08;;;;;;;45.58;23.65;;;;;;;;;;4918994;29;20110;-94
2022/07/21 06:03:41;;;;;;;42.70;21.48;;;;;;;;;;4950947;28;20036;-94
2022/07/21 06:06:08;;;;;;;43.55;23.63;;;;;;;;;;4923636;29;20047;-91
2022/07/21 06:08:34;;;;;;;38.40;21.83;;;;;;;;;;4949442;28;20034;-91
2022/07/21 06:11:00;;;;;;;38.17;22.50;;;;;;;;;;4944086;28;20501;-92
2022/07/21 06:13:26;;;;;;;41.67;23.38;;;;;;;;;;4931722;29;20384;-91
2022/07/21 06:15:52;;;;;;;46.92;22.70;;;;;;;;;;4945037;28;20063;-92
2022/07/21 06:18:19;;;;;;;35.40;20.90;;;;;;;;;;4946124;28;20039;-92
2022/07/21 06:20:45;;;;;;;35.67;21.67;;;;;;;;;;4916492;29;20043;-90
2022/07/21 06:23:11;;;;;;;40.20;23.02;;;;;;;;;;4948643;28;20571;-91
2022/07/21 06:25:37;;;;;;;30.50;19.67;;;;;;;;;;4948300;28;20396;-91
2022/07/21 06:28:03;;;;;;;36.83;21.25;;;;;;;;;;4913767;29;20793;-90
2022/07/21 06:30:29;;;;;;;32.25;19.65;;;;;;;;;;4928529;29;20440;-91
2022/07/21 06:32:55;;;;;;;33.05;20.10;;;;;;;;;;4924762;29;20095;-91
2022/07/21 06:35:21;;;;;;;31.33;20.15;;;;;;;;;;4916465;29;20076;-90
2022/07/21 06:37:48;;;;;;;35.25;20.20;;;;;;;;;;4945132;28;20054;-91
2022/07/21 06:40:14;;;;;;;31.50;19.75;;;;;;;;;;4945540;28;20042;-91
2022/07/21 06:42:40;;;;;;;28.92;18.85;;;;;;;;;;4946036;28;20042;-91
2022/07/21 06:45:13;;;;;;;36.13;19.35;;;;;;;;;;4946805;28;20035;-91
2022/07/21 06:47:40;;;;;;;30.67;20.45;;;;;;;;;;4918339;29;20396;-91
2022/07/21 06:50:06;;;;;;;29.92;19.52;;;;;;;;;;4916607;29;20428;-92
2022/07/21 06:52:35;;;;;;;39.00;20.83;;;;;;;;;;4953485;28;20031;-91
2022/07/21 06:55:01;;;;;;;31.92;19.90;;;;;;;;;;4936478;29;20084;-90
2022/07/21 06:57:28;;;;;;;33.50;20.10;;;;;;;;;;4933796;29;20106;-90
2022/07/21 06:59:54;;;;;;;33.60;20.00;;;;;;;;;;4953133;28;20524;-89
2022/07/21 07:02:20;;;;;;;31.60;20.13;;;;;;;;;;4954692;28;20087;-91
2022/07/21 07:04:46;;;;;;;35.80;20.13;;;;;;;;;;4952414;28;20058;-90
2022/07/21 07:07:12;;;;;;;34.63;20.73;;;;;;;;;;4953344;28;20853;-90
2022/07/21 07:09:38;;;;;;;37.95;21.55;;;;;;;;;;4933126;29;20024;-90
2022/07/21 07:12:05;;;;;;;34.88;19.98;;;;;;;;;;4951242;28;20070;-90
2022/07/21 07:14:31;;;;;;;32.25;20.48;;;;;;;;;;4936467;29;20035;-90
2022/07/21 07:17:02;;;;;;;34.72;20.83;;;;;;;;;;4938352;29;20190;-93
2022/07/21 07:19:28;;;;;;;37.75;21.52;;;;;;;;;;4939511;29;20075;-90
2022/07/21 07:21:54;;;;;;;39.22;21.90;;;;;;;;;;4953516;28;20036;-90
2022/07/21 07:24:21;;;;;;;35.72;22.90;;;;;;;;;;4951980;28;20050;-90
2022/07/21 07:26:47;;;;;;;34.28;20.70;;;;;;;;;;4942862;28;20034;-90
2022/07/21 07:29:13;;;;;;;33.85;20.00;;;;;;;;;;4947521;28;20043;-89
2022/07/21 07:31:39;;;;;;;37.20;23.23;;;;;;;;;;4950972;28;20020;-90
2022/07/21 07:34:06;;;;;;;44.72;24.38;;;;;;;;;;4935020;29;20024;-90
2022/07/21 07:36:32;;;;;;;43.17;24.98;;;;;;;;;;4921605;29;20630;-91
2022/07/21 07:38:59;;;;;;;38.63;24.33;;;;;;;;;;4948514;28;20127;-90
2022/07/21 07:41:26;;;;;;;39.80;25.33;;;;;;;;;;4918168;29;20040;-91
2022/07/21 07:43:53;;;;;;;43.47;25.42;;;;;;;;;;4934701;29;20032;-90
2022/07/21 07:46:19;;;;;;;50.95;26.92;;;;;;;;;;4949604;28;20042;-90
2022/07/21 07:48:47;;;;;;;38.80;21.88;;;;;;;;;;4918999;29;20031;-91
2022/07/21 07:51:14;;;;;;;44.13;25.00;;;;;;;;;;4945290;28;20027;-91
2022/07/21 07:53:41;;;;;;;39.10;24.95;;;;;;;;;;4945569;28;20031;-91
2022/07/21 07:56:07;;;;;;;40.42;24.75;;;;;;;;;;4916304;29;20091;-90
2022/07/21 07:58:33;;;;;;;44.00;25.63;;;;;;;;;;4931273;29;20038;-90
2022/07/21 08:00:59;;;;;;;38.97;24.15;;;;;;;;;;4945571;28;20379;-91
2022/07/21 08:03:26;;;;;;;41.90;24.73;;;;;;;;;;4912098;29;20091;-90
2022/07/21 08:05:54;;;;;;;37.30;24.48;;;;;;;;;;4928641;29;20054;-90
2022/07/21 08:08:20;;;;;;;42.38;25.00;;;;;;;;;;4946861;28;20126;-91
2022/07/21 08:10:48;;;;;;;44.08;24.98;;;;;;;;;;4947079;28;20130;-90
2022/07/21 08:13:16;;;;;;;41.15;23.98;;;;;;;;;;4929749;29;20519;-90
2022/07/21 08:15:42;;;;;;;45.22;25.85;;;;;;;;;;4945711;28;20042;-90
2022/07/21 08:18:09;;;;;;;42.25;26.15;;;;;;;;;;4948804;28;20297;-90
2022/07/21 08:20:35;;;;;;;36.80;23.80;;;;;;;;;;4931255;29;20949;-90
2022/07/21 08:23:02;;;;;;;42.20;24.70;;;;;;;;;;4914225;29;20503;-90
2022/07/21 08:25:28;;;;;;;39.83;24.10;;;;;;;;;;4932648;29;20031;-90
2022/07/21 08:27:54;;;;;;;36.00;23.65;;;;;;;;;;4944804;28;20047;-90
2022/07/21 08:30:20;;;;;;;33.97;22.65;;;;;;;;;;4943844;28;20106;-90
2022/07/21 08:32:46;;;;;;;41.13;23.30;;;;;;;;;;4932516;29;20043;-90
2022/07/21 08:35:12;;;;;;;35.13;23.00;;;;;;;;;;4944769;28;20413;-90
2022/07/21 08:37:39;;;;;;;39.22;23.13;;;;;;;;;;4943010;28;20677;-91
2022/07/21 08:40:07;;;;;;;33.90;21.92;;;;;;;;;;4931667;29;20422;-90
2022/07/21 08:42:33;;;;;;;36.97;22.38;;;;;;;;;;4948388;28;20514;-90
2022/07/21 08:44:59;;;;;;;32.67;19.00;;;;;;;;;;4937595;29;20047;-89
2022/07/21 08:47:29;;;;;;;31.55;20.35;;;;;;;;;;4931192;29;20087;-90
2022/07/21 08:49:55;;;;;;;38.47;22.42;;;;;;;;;;4944290;28;20123;-89
2022/07/21 08:52:21;;;;;;;36.25;22.50;;;;;;;;;;4918445;29;20055;-90
2022/07/21 08:54:48;;;;;;;33.92;22.80;;;;;;;;;;4946821;28;20063;-89
2022/07/21 08:57:14;;;;;;;36.38;20.02;;;;;;;;;;4945626;28;20075;-90
2022/07/21 08:59:40;;;;;;;37.72;22.33;;;;;;;;;;4945676;28;20062;-91
2022/07/21 09:02:06;;;;;;;40.40;22.55;;;;;;;;;;4908802;29;20492;-89
2022/07/21 09:04:33;;;;;;;34.47;21.83;;;;;;;;;;4930058;29;20062;-89
2022/07/21 09:07:06;;;;;;;36.10;21.80;;;;;;;;;;4946446;28;20035;-91
2022/07/21 09:09:33;;;;;;;37.67;23.55;;;;;;;;;;4947073;28;20039;-91
2022/07/21 09:12:08;;;;;;;34.90;21.10;;;;;;;;;;4948806;28;20032;-92
2022/07/21 09:14:35;;;;;;;44.78;24.58;;;;;;;;;;4950267;28;20119;-91
2022/07/21 09:17:02;;;;;;;35.08;21.48;;;;;;;;;;4933848;29;20039;-91
2022/07/21 09:19:35;;;;;;;39.92;22.45;;;;;;;;;;4936113;29;20066;-91
2022/07/21 09:22:09;;;;;;;35.17;21.50;;;;;;;;;;4945810;28;20042;-91
2022/07/21 09:24:40;;;;;;;33.90;21.70;;;;;;;;;;4948574;28;20038;-91
2022/07/21 09:27:06;;;;;;;37.20;21.42;;;;;;;;;;4918985;29;20020;-90
2022/07/21 09:29:36;;;;;;;39.55;23.17;;;;;;;;;;4918549;29;20036;-91
2022/07/21 09:32:12;;;;;;;34.38;21.83;;;;;;;;;;4951908;28;20110;-92
2022/07/21 09:34:38;;;;;;;33.53;21.95;;;;;;;;;;4948813;28;20568;-90
2022/07/21 09:37:06;;;;;;;37.95;21.63;;;;;;;;;;4917924;29;20130;-91
2022/07/21 09:39:47;;;;;;;38.40;21.40;;;;;;;;;;4928741;29;20553;-90
2022/07/21 09:42:22;;;;;;;37.63;23.60;;;;;;;;;;4943078;28;20482;-90
2022/07/21 09:44:53;;;;;;;33.03;20.05;;;;;;;;;;4944133;28;20035;-90
2022/07/21 09:47:20;;;;;;;45.08;25.50;;;;;;;;;;4933831;29;20594;-88
2022/07/21 09:49:46;;;;;;;42.30;27.80;;;;;;;;;;4947224;28;20114;-88
2022/07/21 09:52:22;;;;;;;41.60;25.08;;;;;;;;;;4917324;29;20147;-89
2022/07/21 09:54:48;;;;;;;42.08;25.02;;;;;;;;;;4939574;28;20086;-89
2022/07/21 09:57:16;;;;;;;45.10;26.65;;;;;;;;;;4944507;28;20067;-90
2022/07/21 09:59:45;;;;;;;48.22;28.80;;;;;;;;;;4944945;28;20078;-88
2022/07/21 10:02:15;;;;;;;35.15;18.45;;;;;;;;;;4925610;29;20581;-89
2022/07/21 10:04:42;;;;;;;42.30;24.83;;;;;;;;;;4927069;29;20105;-89
2022/07/21 10:07:08;;;;;;;40.55;25.42;;;;;;;;;;4942721;28;20550;-90
2022/07/21 10:09:34;;;;;;;37.75;25.98;;;;;;;;;;4930497;29;20036;-88
2022/07/21 10:12:00;;;;;;;38.60;23.55;;;;;;;;;;4927790;29;20158;-89
2022/07/21 10:14:26;;;;;;;35.33;22.98;;;;;;;;;;4943608;28;20217;-89
2022/07/21 10:16:53;;;;;;;38.28;23.33;;;;;;;;;;4944126;28;20040;-89
2022/07/21 10:19:28;;;;;;;40.90;24.35;;;;;;;;;;4945312;28;20487;-90
2022/07/21 10:22:04;;;;;;;37.97;22.98;;;;;;;;;;4945693;28;20118;-89
2022/07/21 10:24:30;;;;;;;47.45;28.80;;;;;;;;;;4944003;28;20025;-89
2022/07/21 10:27:15;;;;;;;41.38;25.38;;;;;;;;;;4943683;28;20033;-89
2022/07/21 10:29:54;;;;;;;46.13;27.05;;;;;;;;;;4930221;29;20028;-90
2022/07/21 10:32:21;;;;;;;36.25;18.98;;;;;;;;;;4913913;29;20039;-89
2022/07/21 10:34:48;;;;;;;52.65;30.88;;;;;;;;;;4941658;28;20031;-88
2022/07/21 10:37:33;;;;;;;45.40;28.55;;;;;;;;;;4929523;29;20396;-89
2022/07/21 10:39:59;;;;;;;47.50;27.48;;;;;;;;;;4942424;28;20048;-89
2022/07/21 10:42:25;;;;;;;47.90;30.52;;;;;;;;;;4944575;28;20077;-89
2022/07/21 10:44:51;;;;;;;44.10;27.70;;;;;;;;;;4926383;29;20044;-90
2022/07/21 10:47:28;;;;;;;51.33;28.10;;;;;;;;;;4944269;28;20049;-89
2022/07/21 10:49:58;;;;;;;47.83;26.40;;;;;;;;;;4931726;29;20027;-90
2022/07/21 10:52:39;;;;;;;42.92;25.90;;;;;;;;;;4933854;29;20067;-88
2022/07/21 10:55:17;;;;;;;48.47;26.40;;;;;;;;;;4945187;28;20024;-90
2022/07/21 10:57:44;;;;;;;38.25;25.08;;;;;;;;;;4914202;29;20138;-88
2022/07/21 11:00:30;;;;;;;40.92;24.80;;;;;;;;;;4930557;29;20216;-88
2022/07/21 11:02:57;;;;;;;36.85;23.17;;;;;;;;;;4943325;28;20373;-88
2022/07/21 11:05:24;;;;;;;32.72;20.65;;;;;;;;;;4946349;28;20150;-89
2022/07/21 11:08:09;;;;;;;37.38;19.42;;;;;;;;;;4917103;29;20369;-88
2022/07/21 11:10:36;;;;;;;29.33;20.20;;;;;;;;;;4928043;29;20043;-88
2022/07/21 11:13:02;;;;;;;35.67;21.10;;;;;;;;;;4928573;29;20058;-88
2022/07/21 11:15:48;;;;;;;33.42;21.15;;;;;;;;;;4943800;28;20047;-89
2022/07/21 11:18:22;;;;;;;26.90;18.15;;;;;;;;;;4919115;29;20051;-89
2022/07/21 11:21:02;;;;;;;26.05;16.98;;;;;;;;;;4950906;28;20405;-88
2022/07/21 11:23:41;;;;;;;29.13;19.98;;;;;;;;;;4931531;29;20121;-91
2022/07/21 11:26:08;;;;;;;25.23;17.77;;;;;;;;;;4949981;28;20055;-90
2022/07/21 11:28:35;;;;;;;25.30;17.40;;;;;;;;;;4951301;28;20040;-91
2022/07/21 11:31:14;;;;;;;23.70;16.73;;;;;;;;;;4949866;28;20040;-92
2022/07/21 11:33:41;;;;;;;27.85;19.40;;;;;;;;;;4952557;28;20066;-90
2022/07/21 11:36:07;;;;;;;31.83;17.52;;;;;;;;;;4953246;28;20024;-91
2022/07/21 11:38:34;;;;;;;28.75;16.58;;;;;;;;;;4941328;29;20043;-90
2022/07/21 11:41:13;;;;;;;28.42;17.85;;;;;;;;;;4943748;29;20035;-90
2022/07/21 11:43:43;;;;;;;29.27;19.15;;;;;;;;;;4919140;29;20372;-90
2022/07/21 11:46:09;;;;;;;33.90;19.00;;;;;;;;;;4913201;29;20040;-90
2022/07/21 11:48:35;;;;;;;29.52;18.27;;;;;;;;;;4944239;28;20040;-90
2022/07/21 11:51:04;;;;;;;28.52;18.38;;;;;;;;;;4909916;29;20043;-89
2022/07/21 11:53:31;;;;;;;27.27;19.60;;;;;;;;;;4926619;29;20028;-90
2022/07/21 11:55:57;;;;;;;26.70;19.02;;;;;;;;;;4943791;28;20085;-90
2022/07/21 11:58:23;;;;;;;28.23;18.42;;;;;;;;;;4915547;29;20050;-90
2022/07/21 12:00:49;;;;;;;25.98;17.90;;;;;;;;;;4941609;28;20040;-91
2022/07/21 12:03:15;;;;;;;23.52;18.17;;;;;;;;;;4939672;28;20683;-90
2022/07/21 12:05:42;;;;;;;25.48;16.23;;;;;;;;;;4940965;28;20511;-90
2022/07/21 12:08:09;;;;;;;23.85;14.68;;;;;;;;;;4910832;29;20031;-90
2022/07/21 12:10:37;;;;;;;16.55;12.02;;;;;;;;;;4941097;28;20043;-90
2022/07/21 12:13:06;;;;;;;16.63;11.48;;;;;;;;;;4952761;28;20038;-90
2022/07/21 12:15:34;;;;;;;14.38;10.38;;;;;;;;;;4929410;29;20514;-89
2022/07/21 12:18:17;;;;;;;19.10;11.18;;;;;;;;;;4941325;28;20032;-89
2022/07/21 12:20:43;;;;;;;13.85;9.77;;;;;;;;;;4940255;28;20134;-90
2022/07/21 12:23:20;;;;;;;10.55;8.10;;;;;;;;;;4910514;29;20551;-89
2022/07/21 12:25:46;;;;;;;11.20;8.95;;;;;;;;;;4945036;28;21076;-90
2022/07/21 12:28:13;;;;;;;12.30;9.52;;;;;;;;;;4927243;29;20071;-90
2022/07/21 12:30:50;;;;;;;14.23;9.85;;;;;;;;;;4929321;29;20027;-90
2022/07/21 12:33:18;;;;;;;14.80;10.18;;;;;;;;;;4928966;29;20554;-90
2022/07/21 12:36:04;;;;;;;9.68;8.13;;;;;;;;;;4941783;28;20142;-90
2022/07/21 12:38:41;;;;;;;11.68;7.75;;;;;;;;;;4912548;29;20527;-90
2022/07/21 12:41:07;;;;;;;10.38;7.35;;;;;;;;;;4942731;28;20028;-90
2022/07/21 12:43:35;;;;;;;9.32;7.20;;;;;;;;;;4947056;28;20488;-90
2022/07/21 12:46:19;;;;;;;9.35;7.72;;;;;;;;;;4931688;29;20441;-90
2022/07/21 12:48:46;;;;;;;11.32;8.18;;;;;;;;;;4946927;28;20427;-89
2022/07/21 12:51:14;;;;;;;13.43;9.27;;;;;;;;;;4918966;29;20023;-90
2022/07/21 12:53:42;;;;;;;15.05;9.43;;;;;;;;;;4933358;29;20035;-90
2022/07/21 12:56:08;;;;;;;11.93;9.55;;;;;;;;;;4932008;29;20027;-89
2022/07/21 12:58:35;;;;;;;11.60;8.77;;;;;;;;;;4932609;29;20048;-89
2022/07/21 13:01:01;;;;;;;17.33;11.27;;;;;;;;;;4950297;28;20035;-89
2022/07/21 13:03:29;;;;;;;14.73;9.93;;;;;;;;;;4919604;29;20067;-90
2022/07/21 13:05:55;;;;;;;15.63;9.32;;;;;;;;;;4949525;28;20120;-90
2022/07/21 13:08:21;;;;;;;11.80;9.02;;;;;;;;;;4951359;28;20047;-89
2022/07/21 13:10:47;;;;;;;11.75;8.27;;;;;;;;;;4935104;29;20027;-90
2022/07/21 13:13:13;;;;;;;10.32;7.40;;;;;;;;;;4938460;29;20047;-89
2022/07/21 13:15:39;;;;;;;11.68;7.63;;;;;;;;;;4916201;29;20034;-89
2022/07/21 13:18:05;;;;;;;7.78;6.30;;;;;;;;;;4933835;29;20111;-90
2022/07/21 13:20:31;;;;;;;12.23;6.20;;;;;;;;;;4932861;29;20114;-89
2022/07/21 13:22:57;;;;;;;11.50;6.93;;;;;;;;;;4915240;29;20389;-89
2022/07/21 13:25:23;;;;;;;7.85;5.32;;;;;;;;;;4947406;28;20035;-89
2022/07/21 13:27:49;;;;;;;12.38;6.18;;;;;;;;;;4913249;29;20039;-89
2022/07/21 13:30:15;;;;;;;9.70;5.63;;;;;;;;;;4911990;29;20142;-89
2022/07/21 13:32:41;;;;;;;7.47;5.68;;;;;;;;;;4911065;29;20032;-89
2022/07/21 13:35:07;;;;;;;7.00;5.03;;;;;;;;;;4943043;28;20431;-89
2022/07/21 13:37:34;;;;;;;7.43;5.70;;;;;;;;;;4942780;28;20134;-89
2022/07/21 13:40:00;;;;;;;6.75;4.93;;;;;;;;;;4924655;29;20059;-89
2022/07/21 13:42:26;;;;;;;7.38;4.88;;;;;;;;;;4944511;28;20044;-89
2022/07/21 13:44:52;;;;;;;7.57;4.65;;;;;;;;;;4940029;28;20028;-89
2022/07/21 13:47:18;;;;;;;6.75;4.13;;;;;;;;;;4938385;28;20456;-90
2022/07/21 13:49:44;;;;;;;6.75;4.65;;;;;;;;;;4943739;28;20028;-88
2022/07/21 13:52:10;;;;;;;6.75;4.90;;;;;;;;;;4945738;28;20391;-90
2022/07/21 13:54:36;;;;;;;6.05;3.90;;;;;;;;;;4942192;28;20042;-89
2022/07/21 13:57:02;;;;;;;6.32;4.22;;;;;;;;;;4946214;28;20032;-89
2022/07/21 13:59:28;;;;;;;5.85;3.70;;;;;;;;;;4945590;28;20048;-89
2022/07/21 14:01:55;;;;;;;5.97;3.75;;;;;;;;;;4945906;28;20031;-89
2022/07/21 14:04:21;;;;;;;5.60;4.20;;;;;;;;;;4944116;28;20024;-89
2022/07/21 14:06:49;;;;;;;5.57;3.70;;;;;;;;;;4926534;28;20086;-89
2022/07/21 14:09:15;;;;;;;4.55;3.30;;;;;;;;;;4928396;29;20051;-89
2022/07/21 14:11:41;;;;;;;6.43;4.25;;;;;;;;;;4927025;29;20027;-89
2022/07/21 14:14:07;;;;;;;4.57;3.25;;;;;;;;;;4951643;28;20031;-89
2022/07/21 14:16:33;;;;;;;5.88;3.55;;;;;;;;;;4914711;29;20118;-89
2022/07/21 14:19:00;;;;;;;6.53;4.20;;;;;;;;;;4933610;29;20079;-88
2022/07/21 14:21:26;;;;;;;8.35;4.43;;;;;;;;;;4916430;29;20032;-89
2022/07/21 14:25:18;;;;;;;5.35;3.85;;;;;;;;;;4932291;28;20870;-89
2022/07/21 14:26:38;;;;;;;5.20;3.58;;;;;;;;;;4930596;29;20130;-89